createdAt,value
2022-10-02T00:02:25.385Z,2.97
2022-10-02T00:05:13.101Z,2.55
2022-10-02T00:07:59.499Z,2.17
2022-10-02T00:10:55.529Z,2.35
2022-10-02T00:13:27.444Z,2.00
2022-10-02T00:15:55.465Z,2.00
2022-10-02T00:18:30.162Z,2.78
2022-10-02T00:21:20.607Z,2.40
2022-10-02T00:23:56.986Z,2.47
2022-10-02T00:26:46.585Z,2.53
2022-10-02T00:30:02.439Z,2.70
2022-10-02T00:32:49.214Z,2.63
2022-10-02T00:35:37.328Z,1.77
2022-10-02T00:38:20.152Z,2.13
2022-10-02T00:41:08.653Z,2.33
2022-10-02T00:44:08.546Z,1.98
2022-10-02T00:46:45.259Z,2.25
2022-10-02T00:49:44.864Z,2.15
2022-10-02T00:52:21.651Z,2.28
2022-10-02T00:55:26.738Z,2.23
2022-10-02T00:58:17.628Z,2.33
2022-10-02T01:00:53.058Z,3.00
2022-10-02T01:03:34.312Z,2.40
2022-10-02T01:06:00.807Z,2.55
2022-10-02T01:08:27.990Z,2.47
2022-10-02T01:10:54.633Z,2.10
2022-10-02T01:13:21.649Z,2.28
2022-10-02T01:15:54.771Z,2.20
2022-10-02T01:18:22.020Z,2.03
2022-10-02T01:20:51.430Z,2.40
2022-10-02T01:23:42.273Z,2.70
2022-10-02T01:26:08.885Z,2.53
2022-10-02T01:28:35.503Z,2.25
2022-10-02T01:31:16.134Z,2.17
2022-10-02T01:33:45.067Z,1.63
2022-10-02T01:36:13.561Z,3.03
2022-10-02T01:38:41.772Z,2.47
2022-10-02T01:41:11.851Z,3.03
2022-10-02T01:43:43.516Z,1.75
2022-10-02T01:46:20.978Z,2.17
2022-10-02T01:48:59.775Z,2.60
2022-10-02T01:51:41.137Z,1.85
2022-10-02T01:54:35.619Z,2.47
2022-10-02T01:57:23.529Z,2.58
2022-10-02T02:00:12.239Z,2.60
2022-10-02T02:03:01.088Z,1.90
2022-10-02T02:05:50.266Z,2.05
2022-10-02T02:08:35.891Z,2.08
2022-10-02T02:11:13.246Z,2.45
2022-10-02T02:13:58.316Z,2.27
2022-10-02T02:16:38.283Z,2.08
2022-10-02T02:19:13.392Z,2.35
2022-10-02T02:21:48.455Z,2.70
2022-10-02T02:24:38.609Z,2.10
2022-10-02T02:27:06.368Z,1.80
2022-10-02T02:29:37.394Z,2.15
2022-10-02T02:32:09.719Z,2.55
2022-10-02T02:34:44.188Z,2.10
2022-10-02T02:37:16.629Z,1.92
2022-10-02T02:40:09.242Z,1.80
2022-10-02T02:42:46.146Z,2.20
2022-10-02T02:45:18.757Z,2.05
2022-10-02T02:47:55.070Z,1.73
2022-10-02T02:50:40.570Z,1.95
2022-10-02T02:53:13.150Z,2.43
2022-10-02T02:55:48.089Z,2.22
2022-10-02T02:58:40.505Z,1.83
2022-10-02T03:01:07.412Z,1.80
2022-10-02T03:03:34.010Z,1.63
2022-10-02T03:06:14.329Z,1.53
2022-10-02T03:08:40.894Z,1.65
2022-10-02T03:11:32.325Z,2.35
2022-10-02T03:14:17.781Z,1.75
2022-10-02T03:17:10.636Z,1.98
2022-10-02T03:19:43.256Z,1.80
2022-10-02T03:22:41.496Z,1.52
2022-10-02T03:25:15.576Z,1.20
2022-10-02T03:27:45.269Z,1.50
2022-10-02T03:30:14.172Z,1.50
2022-10-02T03:32:46.014Z,3.17
2022-10-02T03:35:13.953Z,1.77
2022-10-02T03:37:46.959Z,2.38
2022-10-02T03:40:13.463Z,1.88
2022-10-02T03:42:40.237Z,1.45
2022-10-02T03:45:07.262Z,2.00
2022-10-02T03:47:33.705Z,2.05
2022-10-02T03:50:00.195Z,1.77
2022-10-02T03:52:28.392Z,1.60
2022-10-02T03:55:03.751Z,1.90
2022-10-02T03:57:33.757Z,2.17
2022-10-02T04:00:12.431Z,1.75
2022-10-02T04:02:48.437Z,1.42
2022-10-02T04:05:22.627Z,1.75
2022-10-02T04:07:54.458Z,2.00
2022-10-02T04:11:00.205Z,2.27
2022-10-02T04:13:51.263Z,1.77
2022-10-02T04:16:33.390Z,1.42
2022-10-02T04:19:14.459Z,1.90
2022-10-02T04:21:54.526Z,1.80
2022-10-02T04:24:33.670Z,1.47
2022-10-02T04:27:18.306Z,1.70
2022-10-02T04:29:51.224Z,2.28
2022-10-02T04:32:25.347Z,1.25
2022-10-02T04:34:52.648Z,2.45
2022-10-02T04:37:35.067Z,2.30
2022-10-02T04:40:07.656Z,2.25
2022-10-02T04:42:53.673Z,2.38
2022-10-02T04:46:01.887Z,2.00
2022-10-02T04:48:37.091Z,2.50
2022-10-02T04:51:17.111Z,2.63
2022-10-02T04:53:49.252Z,2.20
2022-10-02T04:56:23.855Z,2.35
2022-10-02T04:59:00.170Z,2.60
2022-10-02T05:02:04.108Z,2.97
2022-10-02T05:04:44.096Z,2.33
2022-10-02T05:07:16.401Z,2.40
2022-10-02T05:10:20.621Z,2.20
2022-10-02T05:13:02.279Z,3.03
2022-10-02T05:16:02.983Z,6.60
2022-10-02T05:19:01.516Z,3.37
2022-10-02T05:21:40.208Z,2.85
2022-10-02T05:24:27.835Z,2.88
2022-10-02T05:27:03.614Z,3.40
2022-10-02T05:29:45.393Z,3.03
2022-10-02T05:32:24.344Z,2.73
2022-10-02T05:34:57.404Z,2.92
2022-10-02T05:37:49.006Z,3.22
2022-10-02T05:40:36.402Z,3.10
2022-10-02T05:43:15.101Z,2.70
2022-10-02T05:45:52.170Z,3.20
2022-10-02T05:48:37.361Z,3.40
2022-10-02T05:51:13.628Z,3.42
2022-10-02T05:53:50.311Z,3.30
2022-10-02T05:56:40.899Z,3.35
2022-10-02T05:59:43.392Z,3.50
2022-10-02T06:02:30.353Z,3.53
2022-10-02T06:05:05.864Z,3.53
2022-10-02T06:07:33.377Z,4.88
2022-10-02T06:10:12.045Z,3.35
2022-10-02T06:12:44.355Z,3.10
2022-10-02T06:15:28.574Z,4.35
2022-10-02T06:18:07.379Z,3.80
2022-10-02T06:20:46.134Z,4.32
2022-10-02T06:23:22.682Z,4.22
2022-10-02T06:25:53.919Z,3.87
2022-10-02T06:28:51.568Z,5.15
2022-10-02T06:31:43.563Z,3.40
2022-10-02T06:34:12.828Z,4.40
2022-10-02T06:36:51.691Z,4.25
2022-10-02T06:39:36.177Z,4.13
2022-10-02T06:42:23.899Z,4.97
2022-10-02T06:45:08.542Z,4.13
2022-10-02T06:47:50.242Z,3.25
2022-10-02T06:50:32.059Z,4.00
2022-10-02T06:53:09.293Z,4.43
2022-10-02T06:55:53.489Z,3.92
2022-10-02T06:58:30.057Z,3.40
2022-10-02T07:01:06.343Z,3.22
2022-10-02T07:03:32.864Z,3.85
2022-10-02T07:06:14.494Z,3.37
2022-10-02T07:09:07.226Z,3.95
2022-10-02T07:12:08.228Z,3.22
2022-10-02T07:14:54.916Z,3.40
2022-10-02T07:17:49.769Z,3.58
2022-10-02T07:20:16.230Z,3.50
2022-10-02T07:23:01.783Z,2.95
2022-10-02T07:25:46.520Z,3.47
2022-10-02T07:28:34.854Z,4.72
2022-10-02T07:31:12.837Z,8.00
2022-10-02T07:33:45.325Z,4.30
2022-10-02T07:36:16.446Z,3.85
2022-10-02T07:39:01.201Z,3.33
2022-10-02T07:41:46.494Z,3.22
2022-10-02T07:44:30.100Z,2.40
2022-10-02T07:47:10.442Z,3.03
2022-10-02T07:49:55.694Z,3.30
2022-10-02T07:52:59.373Z,3.10
2022-10-02T07:55:26.547Z,3.33
2022-10-02T07:58:11.663Z,4.40
2022-10-02T08:00:54.517Z,2.73
2022-10-02T08:03:25.608Z,3.17
2022-10-02T08:05:56.352Z,2.38
2022-10-02T08:08:39.336Z,3.03
2022-10-02T08:11:14.449Z,2.38
2022-10-02T08:13:55.266Z,2.50
2022-10-02T08:16:28.430Z,3.10
2022-10-02T08:19:01.531Z,2.63
2022-10-02T08:21:32.877Z,3.00
2022-10-02T08:24:04.166Z,2.85
2022-10-02T08:26:36.068Z,3.17
2022-10-02T08:29:20.595Z,2.88
2022-10-02T08:31:47.843Z,2.42
2022-10-02T08:34:20.984Z,2.85
2022-10-02T08:36:59.382Z,2.65
2022-10-02T08:39:37.867Z,3.30
2022-10-02T08:42:29.021Z,2.53
2022-10-02T08:45:26.739Z,2.13
2022-10-02T08:48:02.146Z,2.30
2022-10-02T08:50:59.106Z,3.47
2022-10-02T08:54:03.402Z,2.30
2022-10-02T08:57:23.950Z,4.60
2022-10-02T09:00:07.867Z,3.05
2022-10-02T09:03:12.994Z,2.50
2022-10-02T09:06:11.838Z,2.08
2022-10-02T09:09:13.170Z,2.27
2022-10-02T09:11:39.628Z,2.20
2022-10-02T09:14:18.867Z,4.47
2022-10-02T09:17:16.948Z,2.13
2022-10-02T09:20:13.248Z,2.83
2022-10-02T09:22:58.910Z,2.20
2022-10-02T09:25:37.489Z,2.63
2022-10-02T09:28:18.694Z,2.47
2022-10-02T09:31:06.657Z,1.80
2022-10-02T09:34:01.937Z,4.75
2022-10-02T09:36:34.796Z,3.13
2022-10-02T09:39:35.136Z,2.90
2022-10-02T09:42:19.962Z,2.55
2022-10-02T09:45:21.137Z,2.58
2022-10-02T09:47:51.541Z,2.55
2022-10-02T09:50:39.746Z,2.20
2022-10-02T09:53:26.567Z,2.30
2022-10-02T09:56:17.812Z,3.50
2022-10-02T09:58:59.078Z,3.15
2022-10-02T10:01:47.441Z,2.58
2022-10-02T10:05:04.603Z,2.63
2022-10-02T10:07:59.760Z,1.77
2022-10-02T10:11:03.794Z,2.60
2022-10-02T10:13:52.041Z,2.38
2022-10-02T10:16:38.243Z,2.33
2022-10-02T10:19:29.840Z,2.20
2022-10-02T10:22:15.368Z,2.15
2022-10-02T10:25:03.206Z,2.85
2022-10-02T10:27:49.088Z,4.28
2022-10-02T10:30:55.298Z,11.15
2022-10-02T10:33:27.969Z,4.23
2022-10-02T10:36:46.748Z,2.30
2022-10-02T10:39:32.050Z,1.92
2022-10-02T10:42:24.301Z,1.65
2022-10-02T10:45:06.017Z,1.85
2022-10-02T10:48:02.213Z,1.57
2022-10-02T10:50:46.549Z,2.03
2022-10-02T10:53:33.922Z,1.55
2022-10-02T10:56:19.304Z,1.40
2022-10-02T10:59:06.306Z,1.38
2022-10-02T11:02:22.997Z,1.83
2022-10-02T11:05:06.655Z,1.48
2022-10-02T11:08:06.124Z,1.55
2022-10-02T11:10:41.492Z,2.30
2022-10-02T11:13:20.190Z,4.00
2022-10-02T11:16:07.288Z,1.93
2022-10-02T11:18:39.692Z,4.03
2022-10-02T11:21:21.851Z,1.75
2022-10-02T11:24:13.620Z,1.73
2022-10-02T11:26:43.096Z,1.55
2022-10-02T11:29:15.589Z,1.33
2022-10-02T11:31:58.383Z,2.13
2022-10-02T11:35:02.890Z,1.50
2022-10-02T11:37:54.562Z,1.73
2022-10-02T11:40:26.873Z,1.33
2022-10-02T11:43:02.202Z,1.10
2022-10-02T11:46:02.904Z,1.15
2022-10-02T11:48:33.145Z,1.30
2022-10-02T11:51:18.471Z,1.50
2022-10-02T11:53:57.616Z,1.50
2022-10-02T11:56:31.094Z,2.03
2022-10-02T11:59:22.974Z,3.03
2022-10-02T12:01:58.387Z,2.00
2022-10-02T12:05:05.813Z,1.30
2022-10-02T12:07:46.282Z,1.52
2022-10-02T12:10:28.465Z,1.50
2022-10-02T12:13:27.007Z,2.20
2022-10-02T12:16:02.459Z,2.00
2022-10-02T12:18:42.896Z,2.33
2022-10-02T12:21:31.104Z,1.52
2022-10-02T12:24:35.091Z,1.10
2022-10-02T12:27:15.800Z,0.95
2022-10-02T12:29:55.571Z,0.95
2022-10-02T12:32:38.393Z,1.33
2022-10-02T12:35:27.535Z,1.15
2022-10-02T12:38:30.885Z,1.03
2022-10-02T12:41:17.423Z,1.27
2022-10-02T12:44:00.775Z,1.00
2022-10-02T12:46:47.448Z,0.80
2022-10-02T12:49:47.277Z,1.10
2022-10-02T12:52:13.694Z,0.97
2022-10-02T12:55:17.514Z,2.38
2022-10-02T12:57:58.852Z,1.30
2022-10-02T13:00:37.567Z,1.95
2022-10-02T13:03:26.383Z,1.25
2022-10-02T13:05:55.631Z,1.70
2022-10-02T13:08:35.229Z,2.10
2022-10-02T13:11:10.721Z,1.40
2022-10-02T13:13:46.118Z,1.65
2022-10-02T13:16:31.074Z,2.28
2022-10-02T13:19:16.330Z,2.10
2022-10-02T13:22:03.957Z,3.35
2022-10-02T13:24:58.602Z,1.60
2022-10-02T13:27:59.605Z,2.13
2022-10-02T13:30:33.738Z,2.83
2022-10-02T13:33:08.901Z,2.10
2022-10-02T13:35:51.050Z,2.00
2022-10-02T13:38:44.116Z,1.60
2022-10-02T13:41:45.543Z,1.80
2022-10-02T13:44:27.289Z,1.83
2022-10-02T13:47:12.587Z,1.43
2022-10-02T13:50:06.960Z,1.67
2022-10-02T13:52:51.727Z,1.77
2022-10-02T13:55:25.982Z,1.20
2022-10-02T13:58:02.291Z,1.70
2022-10-02T14:00:38.005Z,1.30
2022-10-02T14:03:19.527Z,1.20
2022-10-02T14:05:58.088Z,1.13
2022-10-02T14:08:57.243Z,1.20
2022-10-02T14:11:56.280Z,1.27
2022-10-02T14:14:22.712Z,1.30
2022-10-02T14:17:10.092Z,2.00
2022-10-02T14:19:54.833Z,1.55
2022-10-02T14:22:51.203Z,0.68
2022-10-02T14:25:45.480Z,1.35
2022-10-02T14:28:47.520Z,1.30
2022-10-02T14:31:39.331Z,1.20
2022-10-02T14:34:42.874Z,1.20
2022-10-02T14:37:46.519Z,1.02
2022-10-02T14:40:18.065Z,1.45
2022-10-02T14:43:08.993Z,1.50
2022-10-02T14:45:55.571Z,1.17
2022-10-02T14:48:29.147Z,2.30
2022-10-02T14:51:09.559Z,2.08
2022-10-02T14:53:51.464Z,5.00
2022-10-02T14:56:40.233Z,2.63
2022-10-02T14:59:12.835Z,4.07
2022-10-02T15:02:01.518Z,3.60
2022-10-02T15:04:39.851Z,1.20
2022-10-02T15:07:13.602Z,1.40
2022-10-02T15:10:15.768Z,1.27
2022-10-02T15:12:55.048Z,1.67
2022-10-02T15:16:15.545Z,1.40
2022-10-02T15:18:50.757Z,2.20
2022-10-02T15:21:41.200Z,2.33
2022-10-02T15:24:27.811Z,2.50
2022-10-02T15:27:01.113Z,1.50
2022-10-02T15:29:46.419Z,4.38
2022-10-02T15:32:46.385Z,3.60
2022-10-02T15:35:48.992Z,1.48
2022-10-02T15:38:44.556Z,1.40
2022-10-02T15:41:40.488Z,1.75
2022-10-02T15:44:26.481Z,1.20
2022-10-02T15:47:07.306Z,1.45
2022-10-02T15:50:08.496Z,1.30
2022-10-02T15:52:40.773Z,1.93
2022-10-02T15:55:36.095Z,1.17
2022-10-02T15:58:21.189Z,1.73
2022-10-02T16:01:00.615Z,1.35
2022-10-02T16:03:46.483Z,1.50
2022-10-02T16:06:30.024Z,3.07
2022-10-02T16:09:13.557Z,3.60
2022-10-02T16:11:57.540Z,4.22
2022-10-02T16:14:36.426Z,1.83
2022-10-02T16:17:24.117Z,1.98
2022-10-02T16:20:13.873Z,2.23
2022-10-02T16:22:52.430Z,1.58
2022-10-02T16:25:46.599Z,2.10
2022-10-02T16:28:28.533Z,1.90
2022-10-02T16:31:00.051Z,2.00
2022-10-02T16:34:03.169Z,2.20
2022-10-02T16:36:40.272Z,3.22
2022-10-02T16:39:43.383Z,2.55
2022-10-02T16:42:21.065Z,1.83
2022-10-02T16:45:25.677Z,2.03
2022-10-02T16:48:09.125Z,2.40
2022-10-02T16:51:06.839Z,3.30
2022-10-02T16:53:56.331Z,2.65
2022-10-02T16:56:44.253Z,2.97
2022-10-02T16:59:21.618Z,7.43
2022-10-02T17:02:16.488Z,2.33
2022-10-02T17:04:46.587Z,3.70
2022-10-02T17:07:30.798Z,2.90
2022-10-02T17:10:29.441Z,2.80
2022-10-02T17:13:26.149Z,3.58
2022-10-02T17:16:09.449Z,2.77
2022-10-02T17:19:08.294Z,2.80
2022-10-02T17:21:37.755Z,5.78
2022-10-02T17:24:32.097Z,5.00
2022-10-02T17:27:13.065Z,5.35
2022-10-02T17:29:54.576Z,6.17
2022-10-02T17:32:35.145Z,3.45
2022-10-02T17:35:01.695Z,3.40
2022-10-02T17:38:05.917Z,3.63
2022-10-02T17:40:54.353Z,3.05
2022-10-02T17:43:37.127Z,3.00
2022-10-02T17:46:32.324Z,3.60
2022-10-02T17:49:06.302Z,3.42
2022-10-02T17:51:57.676Z,3.10
2022-10-02T17:55:08.259Z,3.75
2022-10-02T17:58:12.611Z,3.90
2022-10-02T18:00:53.273Z,3.78
2022-10-02T18:03:43.216Z,4.18
2022-10-02T18:06:34.052Z,3.70
2022-10-02T18:09:24.714Z,4.90
2022-10-02T18:12:18.515Z,4.67
2022-10-02T18:15:00.303Z,4.30
2022-10-02T18:17:52.826Z,4.90
2022-10-02T18:20:35.329Z,4.20
2022-10-02T18:23:29.461Z,4.30
2022-10-02T18:26:29.859Z,4.30
2022-10-02T18:29:25.768Z,4.10
2022-10-02T18:32:10.650Z,4.50
2022-10-02T18:35:05.302Z,4.20
2022-10-02T18:37:48.011Z,4.78
2022-10-02T18:40:26.607Z,4.83
2022-10-02T18:43:15.250Z,5.60
2022-10-02T18:46:16.592Z,5.07
2022-10-02T18:49:14.551Z,4.80
2022-10-02T18:51:59.693Z,4.97
2022-10-02T18:55:06.546Z,5.00
2022-10-02T18:58:07.297Z,4.82
2022-10-02T19:01:11.317Z,5.25
2022-10-02T19:03:53.479Z,5.40
2022-10-02T19:06:35.030Z,5.78
2022-10-02T19:09:07.396Z,5.70
2022-10-02T19:11:58.336Z,6.88
2022-10-02T19:14:25.049Z,6.05
2022-10-02T19:16:57.013Z,6.07
2022-10-02T19:19:24.374Z,6.13
2022-10-02T19:21:56.031Z,5.43
2022-10-02T19:24:30.338Z,6.45
2022-10-02T19:27:06.927Z,5.20
2022-10-02T19:29:46.258Z,5.55
2022-10-02T19:32:27.584Z,5.95
2022-10-02T19:35:39.041Z,5.23
2022-10-02T19:38:30.832Z,5.95
2022-10-02T19:41:00.374Z,6.05
2022-10-02T19:43:28.728Z,5.93
2022-10-02T19:45:59.645Z,5.50
2022-10-02T19:48:28.099Z,5.73
2022-10-02T19:50:59.509Z,6.18
2022-10-02T19:53:34.521Z,5.80
2022-10-02T19:56:11.301Z,5.93
2022-10-02T19:58:43.464Z,6.05
2022-10-02T20:01:27.645Z,5.40
2022-10-02T20:03:58.095Z,7.20
2022-10-02T20:06:27.055Z,6.50
2022-10-02T20:09:34.882Z,5.50
2022-10-02T20:12:10.298Z,4.93
2022-10-02T20:14:50.519Z,5.77
2022-10-02T20:17:18.928Z,5.15
2022-10-02T20:19:52.272Z,5.20
2022-10-02T20:22:24.676Z,4.57
2022-10-02T20:24:54.406Z,4.47
2022-10-02T20:27:39.681Z,4.57
2022-10-02T20:30:16.736Z,3.88
2022-10-02T20:32:52.256Z,4.82
2022-10-02T20:35:34.554Z,4.35
2022-10-02T20:38:05.318Z,4.45
2022-10-02T20:40:36.547Z,4.60
2022-10-02T20:43:21.185Z,6.53
2022-10-02T20:46:21.573Z,5.75
2022-10-02T20:49:09.161Z,6.68
2022-10-02T20:52:01.798Z,7.60
2022-10-02T20:55:00.782Z,6.30
2022-10-02T20:58:00.991Z,5.65
2022-10-02T21:00:40.780Z,4.95
2022-10-02T21:03:34.100Z,5.65
2022-10-02T21:06:14.130Z,5.38
2022-10-02T21:08:55.928Z,5.60
2022-10-02T21:11:54.365Z,4.70
2022-10-02T21:14:53.592Z,4.65
2022-10-02T21:17:38.610Z,4.70
2022-10-02T21:20:46.292Z,5.53
2022-10-02T21:23:47.325Z,5.03
2022-10-02T21:26:39.170Z,5.35
2022-10-02T21:29:18.113Z,5.90
2022-10-02T21:32:31.339Z,5.75
2022-10-02T21:35:26.718Z,6.32
2022-10-02T21:38:21.478Z,5.87
2022-10-02T21:41:06.280Z,6.22
2022-10-02T21:44:04.946Z,6.35
2022-10-02T21:47:07.167Z,6.20
2022-10-02T21:50:06.486Z,6.70
2022-10-02T21:53:11.211Z,6.47
2022-10-02T21:56:15.513Z,7.13
2022-10-02T21:59:31.549Z,7.50
2022-10-02T22:02:11.418Z,7.60
2022-10-02T22:04:43.819Z,8.48
2022-10-02T22:07:22.308Z,7.77
2022-10-02T22:09:58.038Z,8.55
2022-10-02T22:13:05.691Z,7.53
2022-10-02T22:15:39.664Z,6.75
2022-10-02T22:18:20.333Z,7.50
2022-10-02T22:20:56.075Z,7.43
2022-10-02T22:23:34.574Z,8.10
2022-10-02T22:26:31.062Z,7.20
2022-10-02T22:29:08.718Z,8.35
2022-10-02T22:32:24.619Z,7.30
2022-10-02T22:35:06.824Z,7.53
2022-10-02T22:38:04.584Z,8.43
2022-10-02T22:40:44.411Z,7.60
2022-10-02T22:43:20.155Z,7.82
2022-10-02T22:45:56.366Z,8.10
2022-10-02T22:48:31.421Z,6.83
2022-10-02T22:51:11.185Z,6.88
2022-10-02T22:53:48.187Z,7.63
2022-10-02T22:56:39.290Z,7.22
2022-10-02T22:59:13.595Z,7.65
2022-10-02T23:01:46.966Z,8.07
2022-10-02T23:04:35.232Z,8.50
2022-10-02T23:07:14.004Z,7.50
2022-10-02T23:09:50.323Z,7.00
2022-10-02T23:12:28.089Z,7.68
2022-10-02T23:15:13.618Z,8.33
2022-10-02T23:17:49.155Z,7.85
2022-10-02T23:20:23.353Z,8.65
2022-10-02T23:23:28.307Z,7.00
2022-10-02T23:26:07.213Z,6.82
2022-10-02T23:28:54.887Z,7.90
2022-10-02T23:31:24.483Z,8.07
2022-10-02T23:34:06.737Z,7.65
2022-10-02T23:36:47.486Z,7.78
2022-10-02T23:39:27.500Z,7.28
2022-10-02T23:41:58.361Z,7.37
2022-10-02T23:44:49.993Z,7.80
2022-10-02T23:47:23.363Z,6.72
2022-10-02T23:49:58.566Z,7.57
2022-10-02T23:52:30.803Z,7.28
2022-10-02T23:55:22.555Z,7.57
2022-10-02T23:57:49.023Z,7.60
